Time;durP1;ratioP1;P1;durP2;ratioP2;P2;SDS_P1;SDS_P2;PMS_P1;PMS_P2;Temp;Humidity;BMP_temperature;BMP_pressure;BME280_temperature;BME280_humidity;BME280_pressure;Samples;Min_cycle;Max_cycle;Signal;HPM_P1;HPM_P2
2021/01/15 00:02:15;;;;;;;;;;;;;;;20.06;35.58;100178.75;5038300;28;1922;-48
2021/01/15 00:04:40;;;;;;;;;;;;;;;19.71;36.46;100176.47;5038392;28;776;-48
2021/01/15 00:07:06;;;;;;;;;;;;;;;19.25;37.18;100183.78;5037659;28;967;-52
2021/01/15 00:09:31;;;;;;;;;;;;;;;20.21;35.34;100189.44;5038608;28;958;-50
2021/01/15 00:11:56;;;;;;;;;;;;;;;20.77;34.12;100198.31;5038209;28;740;-49
2021/01/15 00:14:22;;;;;;;;;;;;;;;20.24;35.17;100190.75;5038091;28;840;-49
2021/01/15 00:16:48;;;;;;;;;;;;;;;20.03;35.79;100193.19;5038278;28;1182;-50
2021/01/15 00:19:13;;;;;;;;;;;;;;;19.51;36.65;100190.69;5023250;28;2012;-49
2021/01/15 00:21:48;;;;;;;;;;;;;;;19.64;36.64;100200.88;5057079;28;1917;-49
2021/01/15 00:24:14;;;;;;;;;;;;;;;20.59;34.71;100199.31;5037835;28;1235;-52
2021/01/15 00:26:40;;;;;;;;;;;;;;;20.23;35.17;100202.91;5037763;28;487;-49
2021/01/15 00:29:05;;;;;;;;;;;;;;;20.04;35.56;100198.38;5037832;28;784;-50
2021/01/15 00:31:34;;;;;;;;;;;;;;;19.79;36.11;100200.59;5038117;28;744;-48
2021/01/15 00:34:00;;;;;;;;;;;;;;;19.16;37.55;100193.84;5037850;28;878;-49
2021/01/15 00:36:25;;;;;;;;;;;;;;;20.10;35.52;100201.84;5037291;28;836;-50
2021/01/15 00:38:50;;;;;;;;;;;;;;;20.78;34.13;100196.38;5037454;28;931;-50
2021/01/15 00:41:16;;;;;;;;;;;;;;;20.25;35.36;100198.72;5037593;28;1914;-49
2021/01/15 00:43:41;;;;;;;;;;;;;;;19.91;36.00;100196.47;5037210;28;768;-52
2021/01/15 00:46:12;;;;;;;;;;;;;;;19.42;36.81;100202.44;5037587;28;737;-52
2021/01/15 00:48:38;;;;;;;;;;;;;;;19.84;36.14;100202.44;5037440;28;744;-53
2021/01/15 00:51:10;;;;;;;;;;;;;;;20.69;34.38;100215.63;5036139;28;1213;-53
2021/01/15 00:53:36;;;;;;;;;;;;;;;20.25;35.43;100211.72;5053786;28;963;-48
2021/01/15 00:56:01;;;;;;;;;;;;;;;20.13;35.45;100215.03;5057345;28;850;-50
2021/01/15 00:58:27;;;;;;;;;;;;;;;19.46;36.78;100220.00;5039196;28;1118;-49
2021/01/15 01:00:53;;;;;;;;;;;;;;;19.37;37.00;100218.28;5055768;28;1934;-49
2021/01/15 01:03:29;;;;;;;;;;;;;;;20.22;35.51;100212.34;5038768;28;1253;-48
2021/01/15 01:05:55;;;;;;;;;;;;;;;20.88;33.91;100218.19;5056332;28;828;-47
2021/01/15 01:08:21;;;;;;;;;;;;;;;20.20;35.26;100211.84;5042056;28;879;-48
2021/01/15 01:10:46;;;;;;;;;;;;;;;20.13;35.29;100204.81;5037063;28;753;-49
2021/01/15 01:13:11;;;;;;;;;;;;;;;19.45;36.86;100212.06;5036576;28;773;-56
2021/01/15 01:15:37;;;;;;;;;;;;;;;19.76;36.28;100212.22;5036876;28;761;-48
2021/01/15 01:18:02;;;;;;;;;;;;;;;20.59;34.54;100218.63;5047244;28;1184;-56
2021/01/15 01:20:28;;;;;;;;;;;;;;;20.19;35.26;100202.75;5056300;28;1906;-48
2021/01/15 01:22:53;;;;;;;;;;;;;;;20.20;35.48;100209.88;5045818;28;1748;-56
2021/01/15 01:25:19;;;;;;;;;;;;;;;19.69;36.45;100219.28;5036624;28;776;-47
2021/01/15 01:27:44;;;;;;;;;;;;;;;19.93;36.08;100219.06;5036464;28;807;-48
2021/01/15 01:30:10;;;;;;;;;;;;;;;20.61;34.46;100210.88;5036256;28;736;-57
2021/01/15 01:32:35;;;;;;;;;;;;;;;20.10;35.57;100216.44;5055555;28;868;-55
2021/01/15 01:35:01;;;;;;;;;;;;;;;20.18;35.39;100212.16;5056125;28;832;-53
2021/01/15 01:37:26;;;;;;;;;;;;;;;19.48;36.93;100208.66;5049902;28;947;-48
2021/01/15 01:39:52;;;;;;;;;;;;;;;19.60;36.66;100227.44;5036489;28;819;-55
2021/01/15 01:42:17;;;;;;;;;;;;;;;20.46;34.94;100218.38;5036104;28;1909;-53
2021/01/15 01:44:42;;;;;;;;;;;;;;;20.37;35.01;100213.91;5036799;28;808;-51
2021/01/15 01:47:08;;;;;;;;;;;;;;;20.14;35.74;100220.22;5036432;28;808;-48
2021/01/15 01:49:33;;;;;;;;;;;;;;;19.73;36.25;100220.31;5036435;28;776;-46
2021/01/15 01:51:59;;;;;;;;;;;;;;;19.53;36.81;100224.28;5018475;28;983;-47
2021/01/15 01:54:25;;;;;;;;;;;;;;;20.31;35.33;100221.50;5036892;28;756;-51
2021/01/15 01:56:50;;;;;;;;;;;;;;;20.86;33.84;100228.78;5018368;28;820;-49
2021/01/15 01:59:16;;;;;;;;;;;;;;;20.24;35.27;100221.94;5018662;28;808;-47
2021/01/15 02:01:41;;;;;;;;;;;;;;;20.11;35.44;100220.84;5018714;28;1910;-55
2021/01/15 02:04:07;;;;;;;;;;;;;;;19.58;36.62;100224.19;5036023;28;780;-49
2021/01/15 02:06:35;;;;;;;;;;;;;;;19.72;36.36;100216.72;5036526;28;851;-47
2021/01/15 02:09:04;;;;;;;;;;;;;;;20.42;35.04;100217.38;5036018;28;999;-52
2021/01/15 02:11:49;;;;;;;;;;;;;;;20.85;33.93;100216.06;5035908;28;747;-46
2021/01/15 02:14:21;;;;;;;;;;;;;;;20.34;34.95;100210.66;5019059;28;819;-53
2021/01/15 02:16:47;;;;;;;;;;;;;;;19.97;35.78;100206.28;5018827;28;1194;-49
2021/01/15 02:19:22;;;;;;;;;;;;;;;19.53;36.49;100202.22;5037894;28;783;-53
2021/01/15 02:22:06;;;;;;;;;;;;;;;19.94;35.84;100207.72;5054791;28;1914;-47
2021/01/15 02:24:34;;;;;;;;;;;;;;;20.65;34.46;100200.78;5036145;28;1084;-47
2021/01/15 02:27:09;;;;;;;;;;;;;;;20.66;34.44;100205.19;5035550;28;712;-48
2021/01/15 02:29:34;;;;;;;;;;;;;;;20.14;35.29;100198.16;5036543;28;773;-54
2021/01/15 02:32:08;;;;;;;;;;;;;;;19.77;36.20;100202.81;5018958;28;756;-48
2021/01/15 02:34:40;;;;;;;;;;;;;;;19.09;37.38;100210.78;5018522;28;745;-53
2021/01/15 02:37:20;;;;;;;;;;;;;;;19.90;35.99;100214.19;5018311;28;928;-48
2021/01/15 02:39:45;;;;;;;;;;;;;;;20.83;34.01;100221.09;5018850;28;756;-49
2021/01/15 02:42:11;;;;;;;;;;;;;;;20.22;35.38;100221.44;5035741;28;1910;-49
2021/01/15 02:44:36;;;;;;;;;;;;;;;20.08;35.60;100226.19;5022107;28;821;-54
2021/01/15 02:47:02;;;;;;;;;;;;;;;19.62;36.46;100219.69;5022132;28;570;-53
2021/01/15 02:49:27;;;;;;;;;;;;;;;19.59;36.51;100217.56;5021753;28;808;-54
2021/01/15 02:51:53;;;;;;;;;;;;;;;20.48;34.91;100210.63;5039507;28;959;-52
2021/01/15 02:54:18;;;;;;;;;;;;;;;20.50;34.57;100213.06;5039730;28;862;-49
2021/01/15 02:56:44;;;;;;;;;;;;;;;20.20;35.06;100220.13;5039171;28;740;-50
2021/01/15 02:59:09;;;;;;;;;;;;;;;19.97;35.52;100222.84;5039578;28;773;-48
2021/01/15 03:01:55;;;;;;;;;;;;;;;19.70;36.38;100220.91;5039413;28;1914;-48
2021/01/15 03:04:25;;;;;;;;;;;;;;;20.61;34.39;100213.63;5021541;28;796;-50
2021/01/15 03:06:51;;;;;;;;;;;;;;;20.96;33.54;100217.44;5021430;28;967;-50
2021/01/15 03:09:17;;;;;;;;;;;;;;;20.36;34.87;100226.91;5021739;28;1139;-48
2021/01/15 03:11:42;;;;;;;;;;;;;;;20.00;35.65;100233.25;5021440;28;749;-54
2021/01/15 03:14:08;;;;;;;;;;;;;;;19.35;36.84;100229.63;5021700;28;835;-47
2021/01/15 03:16:34;;;;;;;;;;;;;;;19.72;36.40;100238.78;5039166;28;817;-47
2021/01/15 03:19:00;;;;;;;;;;;;;;;20.57;34.45;100240.25;5057224;28;1175;-55
2021/01/15 03:21:31;;;;;;;;;;;;;;;20.35;35.01;100237.13;5059022;28;2023;-47
2021/01/15 03:24:03;;;;;;;;;;;;;;;20.27;35.00;100234.31;5039608;28;1136;-47
2021/01/15 03:26:28;;;;;;;;;;;;;;;19.64;36.11;100243.09;5038559;28;752;-47
2021/01/15 03:28:54;;;;;;;;;;;;;;;19.17;37.13;100244.28;5021489;28;737;-55
2021/01/15 03:31:19;;;;;;;;;;;;;;;20.09;35.60;100242.44;5038973;28;831;-48
2021/01/15 03:33:45;;;;;;;;;;;;;;;20.79;34.15;100245.78;5038587;28;744;-55
2021/01/15 03:36:10;;;;;;;;;;;;;;;20.40;34.58;100252.78;5039129;28;744;-47
2021/01/15 03:38:35;;;;;;;;;;;;;;;20.18;34.97;100251.59;5038601;28;943;-55
2021/01/15 03:41:01;;;;;;;;;;;;;;;19.59;36.46;100261.69;5038686;28;1973;-51
2021/01/15 03:43:26;;;;;;;;;;;;;;;19.55;36.62;100255.94;5038816;28;819;-48
2021/01/15 03:45:52;;;;;;;;;;;;;;;20.45;34.58;100258.16;5038674;28;808;-54
2021/01/15 03:48:17;;;;;;;;;;;;;;;20.66;34.07;100252.16;5038557;28;881;-55
2021/01/15 03:50:43;;;;;;;;;;;;;;;20.10;35.24;100259.81;5038608;28;799;-56
2021/01/15 03:53:09;;;;;;;;;;;;;;;20.03;35.34;100254.72;5038634;28;1003;-47
2021/01/15 03:55:35;;;;;;;;;;;;;;;19.44;36.80;100262.78;5038169;28;724;-47
2021/01/15 03:58:00;;;;;;;;;;;;;;;20.00;35.74;100260.84;5038429;28;811;-49
2021/01/15 04:00:25;;;;;;;;;;;;;;;20.73;34.30;100266.38;5038386;28;1910;-57
2021/01/15 04:02:51;;;;;;;;;;;;;;;20.38;34.65;100271.59;5038080;28;744;-55
2021/01/15 04:05:16;;;;;;;;;;;;;;;20.15;35.40;100274.31;5038379;28;752;-53
2021/01/15 04:07:42;;;;;;;;;;;;;;;19.77;36.10;100280.06;5038567;28;1030;-56
2021/01/15 04:10:11;;;;;;;;;;;;;;;19.83;35.74;100289.09;5037930;28;752;-49
2021/01/15 04:12:39;;;;;;;;;;;;;;;20.56;34.68;100299.38;5038433;28;784;-50
2021/01/15 04:15:05;;;;;;;;;;;;;;;21.15;33.37;100308.44;5038143;28;945;-56
2021/01/15 04:17:31;;;;;;;;;;;;;;;21.09;33.24;100303.38;5047190;28;893;-50
2021/01/15 04:19:56;;;;;;;;;;;;;;;20.40;34.78;100301.66;5057626;28;892;-59
2021/01/15 04:22:22;;;;;;;;;;;;;;;20.06;35.36;100314.81;5051033;28;1975;-59
2021/01/15 04:24:47;;;;;;;;;;;;;;;19.53;36.26;100315.28;5056011;28;1165;-53
2021/01/15 04:27:13;;;;;;;;;;;;;;;19.54;36.37;100325.22;5057677;28;733;-47
2021/01/15 04:29:38;;;;;;;;;;;;;;;20.50;34.67;100321.56;5057826;28;772;-48
2021/01/15 04:32:03;;;;;;;;;;;;;;;20.42;34.83;100327.03;5057319;28;755;-52
2021/01/15 04:34:30;;;;;;;;;;;;;;;20.25;35.07;100330.44;5057611;28;756;-55
2021/01/15 04:36:55;;;;;;;;;;;;;;;19.81;35.75;100330.78;5054758;28;974;-54
2021/01/15 04:39:21;;;;;;;;;;;;;;;19.53;36.50;100335.44;5037315;28;812;-56
2021/01/15 04:41:46;;;;;;;;;;;;;;;20.43;34.54;100345.25;5037436;28;1973;-55
2021/01/15 04:44:11;;;;;;;;;;;;;;;20.59;34.12;100343.75;5037651;28;737;-55
2021/01/15 04:46:39;;;;;;;;;;;;;;;20.07;35.07;100346.00;5019381;28;808;-54
2021/01/15 04:49:05;;;;;;;;;;;;;;;19.88;35.47;100357.13;5037463;28;794;-51
2021/01/15 04:51:30;;;;;;;;;;;;;;;19.21;37.10;100369.34;5019784;28;772;-51
2021/01/15 04:53:56;;;;;;;;;;;;;;;20.10;35.16;100353.66;5018998;28;1136;-51
2021/01/15 04:56:40;;;;;;;;;;;;;;;20.68;33.91;100357.69;5037252;28;769;-57
2021/01/15 04:59:06;;;;;;;;;;;;;;;20.21;34.79;100359.78;5039136;28;1450;-60
2021/01/15 05:01:41;;;;;;;;;;;;;;;19.98;35.24;100367.97;5056759;28;1914;-52
2021/01/15 05:04:07;;;;;;;;;;;;;;;19.37;36.32;100369.91;5057080;28;942;-56
2021/01/15 05:06:52;;;;;;;;;;;;;;;19.78;35.61;100383.78;5061623;28;1228;-58
2021/01/15 05:09:27;;;;;;;;;;;;;;;20.57;34.20;100387.44;5036164;28;1520;-60
2021/01/15 05:11:53;;;;;;;;;;;;;;;20.23;34.79;100383.22;5025512;28;1023;-56
2021/01/15 05:14:19;;;;;;;;;;;;;;;20.02;35.08;100380.06;5036783;28;748;-57
2021/01/15 05:16:45;;;;;;;;;;;;;;;19.66;35.98;100391.72;5036157;28;776;-56
2021/01/15 05:19:11;;;;;;;;;;;;;;;19.48;36.33;100391.47;5056575;28;1238;-58
2021/01/15 05:21:37;;;;;;;;;;;;;;;20.33;34.48;100384.94;5056294;28;1918;-53
2021/01/15 05:24:03;;;;;;;;;;;;;;;20.72;33.75;100399.31;5050947;28;1005;-54
2021/01/15 05:26:28;;;;;;;;;;;;;;;20.05;34.83;100406.19;5056661;28;874;-57
2021/01/15 05:28:54;;;;;;;;;;;;;;;19.92;35.40;100400.38;5056745;28;811;-60
2021/01/15 05:31:20;;;;;;;;;;;;;;;19.49;36.21;100406.09;5056319;28;791;-56
2021/01/15 05:34:03;;;;;;;;;;;;;;;19.68;35.71;100392.22;5056435;28;755;-58
2021/01/15 05:36:29;;;;;;;;;;;;;;;20.70;33.81;100393.28;5056184;28;772;-57
2021/01/15 05:39:24;;;;;;;;;;;;;;;20.40;34.32;100384.50;5036634;28;912;-55
2021/01/15 05:41:59;;;;;;;;;;;;;;;20.09;34.73;100397.00;5023495;28;1910;-57
2021/01/15 05:44:28;;;;;;;;;;;;;;;19.66;35.53;100403.56;5036130;28;823;-58
2021/01/15 05:46:53;;;;;;;;;;;;;;;19.70;35.88;100403.78;5018482;28;1189;-45
2021/01/15 05:49:19;;;;;;;;;;;;;;;20.50;34.06;100417.44;5036319;28;804;-49
2021/01/15 05:51:44;;;;;;;;;;;;;;;20.66;33.71;100415.16;5035850;28;955;-56
2021/01/15 05:54:10;;;;;;;;;;;;;;;20.22;34.49;100425.72;5035858;28;803;-52
2021/01/15 05:56:36;;;;;;;;;;;;;;;19.86;35.30;100425.59;5036207;28;748;-56
2021/01/15 05:59:05;;;;;;;;;;;;;;;19.35;36.03;100422.59;5035974;28;745;-59
2021/01/15 06:01:37;;;;;;;;;;;;;;;20.17;34.56;100417.53;5035758;28;1965;-51
2021/01/15 06:04:02;;;;;;;;;;;;;;;20.78;33.53;100411.88;5036145;28;768;-55
2021/01/15 06:06:29;;;;;;;;;;;;;;;20.10;34.83;100415.19;5054637;28;1206;-54
2021/01/15 06:08:54;;;;;;;;;;;;;;;20.08;34.65;100414.69;5036626;28;951;-56
2021/01/15 06:11:20;;;;;;;;;;;;;;;19.36;36.27;100429.72;5040688;28;1212;-50
2021/01/15 06:13:45;;;;;;;;;;;;;;;19.80;35.63;100439.50;5055330;28;851;-49
2021/01/15 06:16:12;;;;;;;;;;;;;;;20.56;34.06;100448.53;5055480;28;828;-48
2021/01/15 06:18:37;;;;;;;;;;;;;;;20.60;33.92;100452.31;5041994;28;1343;-48
2021/01/15 06:21:07;;;;;;;;;;;;;;;20.17;34.69;100454.28;5060059;28;1910;-53
2021/01/15 06:23:32;;;;;;;;;;;;;;;19.96;34.98;100458.53;5043306;28;1117;-54
2021/01/15 06:25:58;;;;;;;;;;;;;;;19.25;36.30;100464.09;5022102;28;844;-49
2021/01/15 06:28:33;;;;;;;;;;;;;;;20.12;34.59;100468.16;5039733;28;800;-49
2021/01/15 06:30:59;;;;;;;;;;;;;;;20.81;33.47;100474.81;5039735;28;768;-48
2021/01/15 06:33:24;;;;;;;;;;;;;;;20.24;34.39;100477.88;5039685;28;820;-48
2021/01/15 06:35:50;;;;;;;;;;;;;;;20.16;34.51;100483.00;5039483;28;1019;-49
2021/01/15 06:38:16;;;;;;;;;;;;;;;19.54;35.71;100487.91;5038923;28;951;-53
2021/01/15 06:40:50;;;;;;;;;;;;;;;20.40;34.31;100490.28;5039504;28;1984;-58
2021/01/15 06:43:19;;;;;;;;;;;;;;;20.87;33.16;100494.88;5039486;28;820;-55
2021/01/15 06:45:45;;;;;;;;;;;;;;;20.42;33.99;100501.81;5038915;28;736;-52
2021/01/15 06:48:14;;;;;;;;;;;;;;;19.99;34.98;100510.34;5057964;28;1493;-54
2021/01/15 06:50:40;;;;;;;;;;;;;;;19.53;35.90;100516.59;5059457;28;875;-56
2021/01/15 06:53:19;;;;;;;;;;;;;;;19.21;36.39;100531.97;5046471;28;967;-55
2021/01/15 06:55:45;;;;;;;;;;;;;;;20.20;34.61;100532.06;5038923;28;783;-57
2021/01/15 06:58:17;;;;;;;;;;;;;;;20.79;33.53;100530.41;5039182;28;779;-57
2021/01/15 07:00:42;;;;;;;;;;;;;;;20.22;34.41;100538.13;5038730;28;1910;-53
2021/01/15 07:03:40;;;;;;;;;;;;;;;20.10;34.79;100546.88;5038497;28;1122;-57
2021/01/15 07:06:05;;;;;;;;;;;;;;;19.14;36.54;100557.97;5014718;28;1139;-52
2021/01/15 07:08:31;;;;;;;;;;;;;;;19.98;35.05;100550.94;5024866;28;955;-58
2021/01/15 07:10:57;;;;;;;;;;;;;;;20.73;33.49;100550.16;5038862;28;811;-55
2021/01/15 07:13:26;;;;;;;;;;;;;;;20.17;34.32;100558.34;5038841;28;1297;-61
2021/01/15 07:15:52;;;;;;;;;;;;;;;19.96;34.75;100555.09;5058188;28;748;-55
2021/01/15 07:18:24;;;;;;;;;;;;;;;19.45;36.06;100562.25;5058775;28;1107;-51
2021/01/15 07:20:49;;;;;;;;;;;;;;;19.79;35.53;100556.47;5058762;28;1910;-56
2021/01/15 07:23:15;;;;;;;;;;;;;;;20.57;33.70;100549.63;5036709;28;999;-56
2021/01/15 07:25:47;;;;;;;;;;;;;;;20.36;34.10;100555.53;5038675;28;839;-54
2021/01/15 07:28:12;;;;;;;;;;;;;;;20.25;34.48;100552.13;5038045;28;854;-56
2021/01/15 07:30:38;;;;;;;;;;;;;;;19.73;35.26;100552.16;5036991;28;788;-50
2021/01/15 07:33:05;;;;;;;;;;;;;;;19.81;35.12;100557.00;5037692;28;821;-52
2021/01/15 07:35:30;;;;;;;;;;;;;;;20.56;33.73;100559.81;5038534;28;796;-59
2021/01/15 07:38:12;;;;;;;;;;;;;;;20.28;33.99;100557.03;5025665;28;1381;-56
2021/01/15 07:40:37;;;;;;;;;;;;;;;20.01;34.84;100566.06;5018653;28;1977;-52
2021/01/15 07:43:03;;;;;;;;;;;;;;;19.65;35.34;100577.66;5018606;28;748;-56
2021/01/15 07:45:31;;;;;;;;;;;;;;;19.24;36.31;100575.50;5018526;28;772;-55
2021/01/15 07:47:56;;;;;;;;;;;;;;;20.25;34.47;100579.72;5018497;28;733;-55
2021/01/15 07:50:32;;;;;;;;;;;;;;;20.87;33.03;100580.53;5018342;28;787;-55
2021/01/15 07:53:07;;;;;;;;;;;;;;;20.17;34.37;100586.78;5018111;28;968;-57
2021/01/15 07:56:02;;;;;;;;;;;;;;;19.91;34.66;100580.03;5018354;28;866;-55
2021/01/15 07:58:37;;;;;;;;;;;;;;;19.67;35.53;100595.53;5022365;28;1341;-51
2021/01/15 08:01:05;;;;;;;;;;;;;;;20.51;33.88;100587.56;5018013;28;1950;-58
2021/01/15 08:03:33;;;;;;;;;;;;;;;20.34;34.14;100588.13;5018589;28;760;-55
2021/01/15 08:05:59;;;;;;;;;;;;;;;20.11;34.35;100596.25;5018151;28;772;-56
2021/01/15 08:08:24;;;;;;;;;;;;;;;19.89;34.73;100596.06;5016474;28;960;-57
2021/01/15 08:10:50;;;;;;;;;;;;;;;19.27;35.93;100603.28;5018075;28;812;-56
2021/01/15 08:13:18;;;;;;;;;;;;;;;19.80;35.18;100613.31;5017962;28;740;-55
2021/01/15 08:15:43;;;;;;;;;;;;;;;20.59;33.56;100613.66;5017690;28;729;-54
2021/01/15 08:18:09;;;;;;;;;;;;;;;20.38;34.00;100624.25;5028221;28;1203;-54
2021/01/15 08:20:34;;;;;;;;;;;;;;;20.18;34.24;100642.81;5038020;28;1914;-55
2021/01/15 08:23:00;;;;;;;;;;;;;;;19.75;35.22;100645.66;5029763;28;1076;-57
2021/01/15 08:25:26;;;;;;;;;;;;;;;19.63;35.28;100643.34;5037678;28;799;-55
2021/01/15 08:27:51;;;;;;;;;;;;;;;20.42;34.05;100650.94;5037877;28;818;-56
2021/01/15 08:30:17;;;;;;;;;;;;;;;20.51;33.43;100649.13;5037602;28;803;-57
2021/01/15 08:32:42;;;;;;;;;;;;;;;20.18;34.43;100662.13;5037592;28;783;-55
2021/01/15 08:35:10;;;;;;;;;;;;;;;19.89;34.79;100659.53;5037399;28;748;-50
2021/01/15 08:37:36;;;;;;;;;;;;;;;19.36;35.84;100664.06;5036738;28;990;-49
2021/01/15 08:40:01;;;;;;;;;;;;;;;20.11;34.41;100662.50;5018675;28;894;-59
2021/01/15 08:42:30;;;;;;;;;;;;;;;20.77;33.29;100668.03;5037119;28;1914;-57
2021/01/15 08:44:57;;;;;;;;;;;;;;;20.41;33.92;100670.59;5019318;28;890;-54
2021/01/15 08:47:22;;;;;;;;;;;;;;;20.13;34.20;100682.38;5019829;28;835;-55
2021/01/15 08:49:52;;;;;;;;;;;;;;;19.87;34.87;100676.41;5020185;28;741;-51
2021/01/15 08:52:20;;;;;;;;;;;;;;;19.39;35.75;100685.56;5036598;28;1062;-54
2021/01/15 08:54:46;;;;;;;;;;;;;;;20.03;34.75;100688.03;5019392;28;732;-54
2021/01/15 08:57:11;;;;;;;;;;;;;;;20.66;33.56;100686.72;5019620;28;818;-56
2021/01/15 08:59:38;;;;;;;;;;;;;;;20.29;34.24;100682.94;5018896;28;890;-53
2021/01/15 09:02:04;;;;;;;;;;;;;;;20.18;34.41;100700.78;5036761;28;1910;-55
2021/01/15 09:04:30;;;;;;;;;;;;;;;19.76;34.88;100695.00;5037021;28;822;-58
2021/01/15 09:06:56;;;;;;;;;;;;;;;19.28;35.99;100687.63;5036150;28;972;-59
2021/01/15 09:09:22;;;;;;;;;;;;;;;20.33;34.12;100678.44;5036895;28;824;-51
2021/01/15 09:11:48;;;;;;;;;;;;;;;20.90;33.02;100679.41;5037124;28;748;-56
2021/01/15 09:14:13;;;;;;;;;;;;;;;20.42;33.96;100670.28;5036276;28;759;-53
2021/01/15 09:16:39;;;;;;;;;;;;;;;20.37;33.77;100662.09;5019230;28;822;-53
2021/01/15 09:19:06;;;;;;;;;;;;;;;19.79;35.08;100675.13;5055791;28;1282;-51
2021/01/15 09:21:31;;;;;;;;;;;;;;;19.15;36.38;100672.63;5056041;28;1906;-53
2021/01/15 09:23:57;;;;;;;;;;;;;;;20.01;34.79;100670.94;5037260;28;1211;-55
2021/01/15 09:26:22;;;;;;;;;;;;;;;20.66;33.38;100667.41;5036504;28;838;-56
2021/01/15 09:28:47;;;;;;;;;;;;;;;20.30;34.21;100672.69;5035999;28;795;-57
2021/01/15 09:31:13;;;;;;;;;;;;;;;20.17;34.39;100669.59;5036411;28;772;-56
2021/01/15 09:33:46;;;;;;;;;;;;;;;19.64;35.41;100678.91;5036388;28;747;-50
2021/01/15 09:36:21;;;;;;;;;;;;;;;19.75;35.16;100678.75;5035999;28;780;-55
2021/01/15 09:38:47;;;;;;;;;;;;;;;20.51;33.89;100674.00;5036416;28;955;-50
2021/01/15 09:41:12;;;;;;;;;;;;;;;20.42;33.72;100680.53;5036254;28;1910;-51
2021/01/15 09:43:38;;;;;;;;;;;;;;;20.33;34.16;100694.19;5018278;28;782;-49
2021/01/15 09:46:03;;;;;;;;;;;;;;;19.92;34.67;100689.28;5018555;28;1331;-54
2021/01/15 09:48:29;;;;;;;;;;;;;;;19.30;36.06;100690.09;5036253;28;856;-58
2021/01/15 09:50:54;;;;;;;;;;;;;;;20.08;34.46;100682.44;5052892;28;1545;-55
2021/01/15 09:53:20;;;;;;;;;;;;;;;20.72;33.37;100689.41;5041422;28;883;-55
2021/01/15 09:55:45;;;;;;;;;;;;;;;20.38;33.99;100688.56;5036108;28;871;-55
2021/01/15 09:58:10;;;;;;;;;;;;;;;20.09;34.23;100681.31;5035815;28;816;-49
2021/01/15 10:00:36;;;;;;;;;;;;;;;19.70;35.10;100682.41;5036121;28;1910;-56
2021/01/15 10:03:01;;;;;;;;;;;;;;;19.26;36.23;100681.56;5018386;28;1311;-55
2021/01/15 10:05:27;;;;;;;;;;;;;;;20.24;34.33;100671.16;5035998;28;764;-53
2021/01/15 10:07:52;;;;;;;;;;;;;;;20.75;33.30;100667.53;5035850;28;931;-55
2021/01/15 10:10:18;;;;;;;;;;;;;;;20.34;33.95;100674.56;5035901;28;823;-58
2021/01/15 10:12:44;;;;;;;;;;;;;;;20.39;33.80;100670.88;5036044;28;764;-56
2021/01/15 10:15:09;;;;;;;;;;;;;;;19.51;35.43;100667.78;5036085;28;772;-57
2021/01/15 10:17:41;;;;;;;;;;;;;;;19.78;35.24;100670.72;5042417;28;1111;-49
2021/01/15 10:20:07;;;;;;;;;;;;;;;20.59;33.71;100678.00;5055948;28;767;-54
2021/01/15 10:22:33;;;;;;;;;;;;;;;20.37;33.89;100689.72;5047529;28;1913;-57
2021/01/15 10:24:58;;;;;;;;;;;;;;;20.14;34.19;100678.47;5035752;28;776;-51
2021/01/15 10:27:24;;;;;;;;;;;;;;;19.76;34.96;100686.72;5035498;28;748;-52
2021/01/15 10:29:49;;;;;;;;;;;;;;;19.31;35.94;100686.22;5035795;28;804;-56
2021/01/15 10:32:14;;;;;;;;;;;;;;;20.00;34.58;100681.16;5035802;28;761;-51
2021/01/15 10:34:40;;;;;;;;;;;;;;;20.70;33.50;100675.91;5035597;28;748;-51
2021/01/15 10:37:05;;;;;;;;;;;;;;;20.30;33.92;100678.22;5035617;28;1014;-51
2021/01/15 10:39:31;;;;;;;;;;;;;;;20.15;34.31;100669.06;5035742;28;761;-52
2021/01/15 10:41:56;;;;;;;;;;;;;;;19.67;35.15;100666.47;5035324;28;1927;-48
2021/01/15 10:44:22;;;;;;;;;;;;;;;19.36;36.10;100663.28;5035994;28;752;-56
2021/01/15 10:46:49;;;;;;;;;;;;;;;20.26;34.09;100655.09;5036224;28;784;-63
2021/01/15 10:49:15;;;;;;;;;;;;;;;20.91;33.21;100657.00;5035652;28;851;-47
2021/01/15 10:51:43;;;;;;;;;;;;;;;21.27;32.33;100638.88;5035389;28;975;-63
2021/01/15 10:54:09;;;;;;;;;;;;;;;20.87;33.01;100642.16;5035532;28;752;-49
2021/01/15 10:56:37;;;;;;;;;;;;;;;20.54;33.92;100636.66;5035199;28;848;-53
2021/01/15 10:59:03;;;;;;;;;;;;;;;20.12;34.53;100639.31;5043840;28;1131;-51
2021/01/15 11:01:49;;;;;;;;;;;;;;;19.39;35.76;100637.84;5055319;28;1906;-52
2021/01/15 11:04:15;;;;;;;;;;;;;;;19.38;36.18;100645.31;5056173;28;1149;-48
2021/01/15 11:06:41;;;;;;;;;;;;;;;20.35;34.25;100639.47;5058308;28;1010;-57
2021/01/15 11:09:06;;;;;;;;;;;;;;;20.84;33.21;100632.53;5039061;28;763;-57
2021/01/15 11:11:32;;;;;;;;;;;;;;;20.34;33.98;100632.31;5038758;28;748;-56
2021/01/15 11:13:57;;;;;;;;;;;;;;;20.29;33.99;100621.38;5038936;28;772;-57
2021/01/15 11:16:23;;;;;;;;;;;;;;;19.61;35.36;100623.50;5038785;28;740;-50
2021/01/15 11:18:49;;;;;;;;;;;;;;;19.24;36.28;100631.44;5055522;28;1215;-50
2021/01/15 11:21:14;;;;;;;;;;;;;;;20.26;34.08;100621.94;5058708;28;1913;-57
2021/01/15 11:23:39;;;;;;;;;;;;;;;20.78;33.28;100627.44;5040489;28;1129;-56
2021/01/15 11:26:05;;;;;;;;;;;;;;;20.17;34.11;100622.66;5058240;28;855;-60
2021/01/15 11:28:30;;;;;;;;;;;;;;;20.17;34.19;100628.19;5058906;28;751;-59
2021/01/15 11:30:56;;;;;;;;;;;;;;;19.49;35.33;100630.28;5058470;28;748;-54
2021/01/15 11:33:21;;;;;;;;;;;;;;;20.04;34.50;100631.72;5058612;28;780;-57
2021/01/15 11:35:47;;;;;;;;;;;;;;;20.66;33.38;100630.63;5058586;28;764;-50
2021/01/15 11:38:12;;;;;;;;;;;;;;;20.37;33.83;100631.72;5056020;28;1505;-56
2021/01/15 11:40:38;;;;;;;;;;;;;;;20.21;34.23;100633.91;5058635;28;1910;-58
2021/01/15 11:43:03;;;;;;;;;;;;;;;19.62;35.32;100634.22;5057858;28;756;-54
2021/01/15 11:45:29;;;;;;;;;;;;;;;19.33;36.12;100642.63;5061826;28;1059;-56
2021/01/15 11:47:54;;;;;;;;;;;;;;;20.34;33.96;100641.44;5068012;28;1173;-58
2021/01/15 11:50:20;;;;;;;;;;;;;;;20.80;33.14;100634.28;5068339;28;1166;-56
2021/01/15 11:52:45;;;;;;;;;;;;;;;20.30;34.06;100634.88;5067456;28;1204;-48
2021/01/15 11:55:11;;;;;;;;;;;;;;;20.17;34.51;100633.72;5049136;28;1281;-58
2021/01/15 11:57:37;;;;;;;;;;;;;;;19.49;35.60;100648.78;5071867;28;1315;-57
2021/01/15 12:00:03;;;;;;;;;;;;;;;20.17;34.35;100642.00;5078455;28;776;-57
2021/01/15 12:02:32;;;;;;;;;;;;;;;20.76;33.21;100643.47;5078062;28;1906;-53
2021/01/15 12:04:58;;;;;;;;;;;;;;;20.16;34.24;100645.88;5077809;28;764;-56
2021/01/15 12:07:23;;;;;;;;;;;;;;;20.17;34.12;100654.97;5053460;28;969;-56
2021/01/15 12:09:48;;;;;;;;;;;;;;;19.74;35.02;100650.34;5057953;28;862;-58
2021/01/15 12:12:14;;;;;;;;;;;;;;;19.28;36.14;100654.53;5057355;28;815;-50
2021/01/15 12:14:39;;;;;;;;;;;;;;;19.67;35.22;100649.91;5059745;28;1218;-50
2021/01/15 12:17:05;;;;;;;;;;;;;;;20.44;33.92;100654.25;5057795;28;1292;-56
2021/01/15 12:19:30;;;;;;;;;;;;;;;20.67;33.14;100657.16;5053696;28;1116;-61
2021/01/15 12:21:56;;;;;;;;;;;;;;;20.17;34.32;100663.25;5054172;28;1969;-58
2021/01/15 12:24:21;;;;;;;;;;;;;;;20.04;34.37;100670.34;5037417;28;1049;-59
2021/01/15 12:26:46;;;;;;;;;;;;;;;19.32;35.89;100666.63;5052128;28;841;-52
2021/01/15 12:29:12;;;;;;;;;;;;;;;20.32;34.00;100675.97;5057976;28;833;-54
2021/01/15 12:31:37;;;;;;;;;;;;;;;20.97;32.71;100663.25;5057719;28;756;-52
2021/01/15 12:34:03;;;;;;;;;;;;;;;20.32;33.93;100681.50;5056974;28;915;-48
2021/01/15 12:36:29;;;;;;;;;;;;;;;20.08;34.36;100682.44;5057326;28;843;-58
2021/01/15 12:38:54;;;;;;;;;;;;;;;19.65;35.21;100682.47;5038187;28;994;-57
2021/01/15 12:41:20;;;;;;;;;;;;;;;19.29;36.21;100685.69;5037028;28;1977;-57
2021/01/15 12:43:45;;;;;;;;;;;;;;;20.11;34.45;100690.09;5037547;28;776;-56
2021/01/15 12:46:13;;;;;;;;;;;;;;;20.79;33.22;100693.44;5037069;28;752;-61
2021/01/15 12:48:39;;;;;;;;;;;;;;;20.44;33.79;100687.38;5036644;28;863;-60
2021/01/15 12:51:05;;;;;;;;;;;;;;;20.19;34.41;100683.09;5037153;28;776;-56
2021/01/15 12:53:31;;;;;;;;;;;;;;;19.89;34.82;100684.38;5036808;28;1014;-60